Ree — C6QK9 — position and weather

sailwx.info

Track history (hours):
 
Tides and Currents Weather Stations Pressure Air Temp Water Temp Dewpoint Dewpoint Depression Visibility Wind Speed Wind Dir Waves Ship Positions

Ree

Last reported at 2017-Nov-19 14:41 UTC. Time now 2017-Nov-20 21:20 UTC.
Position N 26°44' W 017°37'.

Length 34 m.

Type: Pleasure craft. MMSI: 308008000.

Date/timePositionNaut miles runAvg speedWind from/ knotsBaromVisibWave heightAir tempDewpointWater temp
2017-Nov-19 14:41N 26°44' W 017°37'1 7.4
2017-Nov-19 14:31N 26°45' W 017°35'4 7.2
2017-Nov-19 14:01N 26°45' W 017°31'3 5.6
2017-Nov-19 13:31N 26°46' W 017°29'3 5.5
2017-Nov-19 13:01N 26°49' W 017°27'2 3.7
2017-Nov-19 12:31N 26°51' W 017°26'2 4.2
2017-Nov-19 12:01N 26°52' W 017°25'4 4.1
2017-Nov-19 10:57N 26°56' W 017°23'2 4.2
2017-Nov-19 10:31N 26°58' W 017°21'2 4.6
2017-Nov-19 10:01N 26°59' W 017°19'2 4.2
2017-Nov-19 09:31N 27°01' W 017°18'2 4.1
2017-Nov-19 09:01N 27°02' W 017°16'2 4.4
2017-Nov-19 08:31N 27°04' W 017°15'2 4.8
2017-Nov-19 08:01N 27°06' W 017°13'2 4.9
2017-Nov-19 07:31N 27°08' W 017°12'2 4.9
2017-Nov-19 07:01N 27°10' W 017°10'2 5.0
2017-Nov-19 06:31N 27°12' W 017°09'3 5.1
2017-Nov-19 06:01N 27°14' W 017°07'3 5.4
2017-Nov-19 05:31N 27°16' W 017°05'3 5.5
2017-Nov-19 05:01N 27°18' W 017°03'3 5.4
2017-Nov-19 04:31N 27°20' W 017°01'3 5.6
2017-Nov-19 04:01N 27°23' W 016°59'4 7.3
2017-Nov-19 03:31N 27°26' W 016°57'4 7.5
2017-Nov-19 03:01N 27°29' W 016°55'4 7.4
2017-Nov-19 02:31N 27°32' W 016°53'4 7.3
2017-Nov-19 02:01N 27°35' W 016°51'4 7.7
2017-Nov-19 01:31N 27°39' W 016°49'4 8.0
2017-Nov-19 01:01N 27°42' W 016°46'3 6.6
2017-Nov-19 00:31N 27°44' W 016°44'4 7.1
2017-Nov-19 00:01N 27°47' W 016°41'4 7.1
2017-Nov-18 23:31N 27°50' W 016°39'4 7.0
2017-Nov-18 23:01N 27°53' W 016°36'4 7.3
2017-Nov-18 22:31N 27°56' W 016°34'4 7.5
2017-Nov-18 22:01N 27°58' W 016°31'  
2017-Nov-11 22:29N 28°28' W 016°15'0 0.0
2017-Nov-11 21:44N 28°28' W 016°15'0 0.0
2017-Nov-11 20:17N 28°28' W 016°15'0 0.0
2017-Nov-11 17:26N 28°28' W 016°15'0 0.0
2017-Nov-11 14:13N 28°28' W 016°15'0 0.0
2017-Nov-11 14:01N 28°28' W 016°15'0 0.0
2017-Nov-11 13:31N 28°28' W 016°15'0 0.0
2017-Nov-11 13:01N 28°28' W 016°15'0 0.3
2017-Nov-11 12:31N 28°28' W 016°15'2 4.2
2017-Nov-11 12:01N 28°28' W 016°12'4 8.2
2017-Nov-11 11:31N 28°30' W 016°08'3 6.0
2017-Nov-11 11:01N 28°33' W 016°06'3 6.6
2017-Nov-11 10:31N 28°35' W 016°04'4 7.5
2017-Nov-11 10:01N 28°39' W 016°02'4 7.7
2017-Nov-11 09:31N 28°42' W 015°60'4 7.4
2017-Nov-11 09:01N 28°45' W 015°57'4 7.4
2017-Nov-11 08:31N 28°48' W 015°55'4 8.2
2017-Nov-11 08:01N 28°52' W 015°53'4 8.6
2017-Nov-11 07:31N 28°55' W 015°50'3 6.8
2017-Nov-11 07:01N 28°59' W 015°49'3 6.8
2017-Nov-11 06:31N 29°01' W 015°47'3 6.7
2017-Nov-11 06:01N 29°04' W 015°45'3 6.8
2017-Nov-11 05:31N 29°07' W 015°43'3 7.0
2017-Nov-11 05:01N 29°10' W 015°41'4 7.1
2017-Nov-11 04:31N 29°13' W 015°39'4 7.2
2017-Nov-11 04:00N 29°16' W 015°37'4 7.1
2017-Nov-11 03:31N 29°20' W 015°35'4 7.2
2017-Nov-11 03:01N 29°23' W 015°33'4 7.3
2017-Nov-11 02:31N 29°26' W 015°30'4 7.3
2017-Nov-11 02:01N 29°29' W 015°28'4 7.5
2017-Nov-11 01:31N 29°32' W 015°26'4 7.8
2017-Nov-11 01:01N 29°36' W 015°24'4 7.6
2017-Nov-11 00:31N 29°39' W 015°22'4 7.8
2017-Nov-11 00:01N 29°42' W 015°19'4 7.7
2017-Nov-10 23:31N 29°45' W 015°17'4 8.1
2017-Nov-10 23:00N 29°49' W 015°15'4 8.0
2017-Nov-10 22:31N 29°52' W 015°12'19 8.2
2017-Nov-10 20:12N 30°09' W 015°01'2 8.4
2017-Nov-10 20:01N 30°10' W 015°00'4 8.3
2017-Nov-10 19:31N 30°14' W 014°58'4 8.2
2017-Nov-10 19:01N 30°17' W 014°56'4 7.6
2017-Nov-10 18:31N 30°20' W 014°53'4 7.5
2017-Nov-10 18:01N 30°24' W 014°51'4 7.8
2017-Nov-10 17:31N 30°27' W 014°49'4 7.8
2017-Nov-10 17:01N 30°30' W 014°47'4 7.8
2017-Nov-10 16:31N 30°34' W 014°44'4 7.8
2017-Nov-10 16:01N 30°37' W 014°42'4 8.0
2017-Nov-10 15:31N 30°41' W 014°40'4 7.9
2017-Nov-10 15:01N 30°44' W 014°37'4 7.7
2017-Nov-10 14:31N 30°47' W 014°35'4 8.0
2017-Nov-10 14:01N 30°51' W 014°33'4 8.1
2017-Nov-10 13:31N 30°54' W 014°30'4 8.2
2017-Nov-10 13:01N 30°58' W 014°28'4 8.3
2017-Nov-10 12:31N 31°01' W 014°25'4 8.1
2017-Nov-10 12:01N 31°05' W 014°23'4 8.2
2017-Nov-10 11:31N 31°08' W 014°21'4 8.2
2017-Nov-10 11:01N 31°12' W 014°18'4 8.1
2017-Nov-10 10:31N 31°15' W 014°16'134 7.7
2017-Nov-09 17:04N 32°19' W 011°57'0 7.5
2017-Nov-09 17:00N 32°19' W 011°56'4 7.8
2017-Nov-09 16:31N 32°21' W 011°53'4 7.6
2017-Nov-09 16:01N 32°24' W 011°49'8 8.0
2017-Nov-09 14:58N 32°29' W 011°41'  
Track history (hours):
 
Tides and Currents Weather Stations Pressure Air Temp Water Temp Dewpoint Dewpoint Depression Visibility Wind Speed Wind Dir Waves Ship Positions

Ree

Last reported at 2017-Nov-19 14:41 UTC. Time now 2017-Nov-20 21:20 UTC.
Position N 26°44' W 017°37'.

Length 34 m.

Type: Pleasure craft. MMSI: 308008000.

Date/timePositionNaut miles runAvg speedWind from/ knotsBaromVisibWave heightAir tempDewpointWater temp
2017-Nov-19 14:41N 26°44' W 017°37'1 7.4
2017-Nov-19 14:31N 26°45' W 017°35'4 7.2
2017-Nov-19 14:01N 26°45' W 017°31'3 5.6
2017-Nov-19 13:31N 26°46' W 017°29'3 5.5
2017-Nov-19 13:01N 26°49' W 017°27'2 3.7
2017-Nov-19 12:31N 26°51' W 017°26'2 4.2
2017-Nov-19 12:01N 26°52' W 017°25'4 4.1
2017-Nov-19 10:57N 26°56' W 017°23'2 4.2
2017-Nov-19 10:31N 26°58' W 017°21'2 4.6
2017-Nov-19 10:01N 26°59' W 017°19'2 4.2
2017-Nov-19 09:31N 27°01' W 017°18'2 4.1
2017-Nov-19 09:01N 27°02' W 017°16'2 4.4
2017-Nov-19 08:31N 27°04' W 017°15'2 4.8
2017-Nov-19 08:01N 27°06' W 017°13'2 4.9
2017-Nov-19 07:31N 27°08' W 017°12'2 4.9
2017-Nov-19 07:01N 27°10' W 017°10'2 5.0
2017-Nov-19 06:31N 27°12' W 017°09'3 5.1
2017-Nov-19 06:01N 27°14' W 017°07'3 5.4
2017-Nov-19 05:31N 27°16' W 017°05'3 5.5
2017-Nov-19 05:01N 27°18' W 017°03'3 5.4
2017-Nov-19 04:31N 27°20' W 017°01'3 5.6
2017-Nov-19 04:01N 27°23' W 016°59'4 7.3
2017-Nov-19 03:31N 27°26' W 016°57'4 7.5
2017-Nov-19 03:01N 27°29' W 016°55'4 7.4
2017-Nov-19 02:31N 27°32' W 016°53'4 7.3
2017-Nov-19 02:01N 27°35' W 016°51'4 7.7
2017-Nov-19 01:31N 27°39' W 016°49'4 8.0
2017-Nov-19 01:01N 27°42' W 016°46'3 6.6
2017-Nov-19 00:31N 27°44' W 016°44'4 7.1
2017-Nov-19 00:01N 27°47' W 016°41'4 7.1
2017-Nov-18 23:31N 27°50' W 016°39'4 7.0
2017-Nov-18 23:01N 27°53' W 016°36'4 7.3
2017-Nov-18 22:31N 27°56' W 016°34'4 7.5
2017-Nov-18 22:01N 27°58' W 016°31'  
2017-Nov-11 22:29N 28°28' W 016°15'0 0.0
2017-Nov-11 21:44N 28°28' W 016°15'0 0.0
2017-Nov-11 20:17N 28°28' W 016°15'0 0.0
2017-Nov-11 17:26N 28°28' W 016°15'0 0.0
2017-Nov-11 14:13N 28°28' W 016°15'0 0.0
2017-Nov-11 14:01N 28°28' W 016°15'0 0.0
2017-Nov-11 13:31N 28°28' W 016°15'0 0.0
2017-Nov-11 13:01N 28°28' W 016°15'0 0.3
2017-Nov-11 12:31N 28°28' W 016°15'2 4.2
2017-Nov-11 12:01N 28°28' W 016°12'4 8.2
2017-Nov-11 11:31N 28°30' W 016°08'3 6.0
2017-Nov-11 11:01N 28°33' W 016°06'3 6.6
2017-Nov-11 10:31N 28°35' W 016°04'4 7.5
2017-Nov-11 10:01N 28°39' W 016°02'4 7.7
2017-Nov-11 09:31N 28°42' W 015°60'4 7.4
2017-Nov-11 09:01N 28°45' W 015°57'4 7.4
2017-Nov-11 08:31N 28°48' W 015°55'4 8.2
2017-Nov-11 08:01N 28°52' W 015°53'4 8.6
2017-Nov-11 07:31N 28°55' W 015°50'3 6.8
2017-Nov-11 07:01N 28°59' W 015°49'3 6.8
2017-Nov-11 06:31N 29°01' W 015°47'3 6.7
2017-Nov-11 06:01N 29°04' W 015°45'3 6.8
2017-Nov-11 05:31N 29°07' W 015°43'3 7.0
2017-Nov-11 05:01N 29°10' W 015°41'4 7.1
2017-Nov-11 04:31N 29°13' W 015°39'4 7.2
2017-Nov-11 04:00N 29°16' W 015°37'4 7.1
2017-Nov-11 03:31N 29°20' W 015°35'4 7.2
2017-Nov-11 03:01N 29°23' W 015°33'4 7.3
2017-Nov-11 02:31N 29°26' W 015°30'4 7.3
2017-Nov-11 02:01N 29°29' W 015°28'4 7.5
2017-Nov-11 01:31N 29°32' W 015°26'4 7.8
2017-Nov-11 01:01N 29°36' W 015°24'4 7.6
2017-Nov-11 00:31N 29°39' W 015°22'4 7.8
2017-Nov-11 00:01N 29°42' W 015°19'4 7.7
2017-Nov-10 23:31N 29°45' W 015°17'4 8.1
2017-Nov-10 23:00N 29°49' W 015°15'4 8.0
2017-Nov-10 22:31N 29°52' W 015°12'19 8.2
2017-Nov-10 20:12N 30°09' W 015°01'2 8.4
2017-Nov-10 20:01N 30°10' W 015°00'4 8.3
2017-Nov-10 19:31N 30°14' W 014°58'4 8.2
2017-Nov-10 19:01N 30°17' W 014°56'4 7.6
2017-Nov-10 18:31N 30°20' W 014°53'4 7.5
2017-Nov-10 18:01N 30°24' W 014°51'4 7.8
2017-Nov-10 17:31N 30°27' W 014°49'4 7.8
2017-Nov-10 17:01N 30°30' W 014°47'4 7.8
2017-Nov-10 16:31N 30°34' W 014°44'4 7.8
2017-Nov-10 16:01N 30°37' W 014°42'4 8.0
2017-Nov-10 15:31N 30°41' W 014°40'4 7.9
2017-Nov-10 15:01N 30°44' W 014°37'4 7.7
2017-Nov-10 14:31N 30°47' W 014°35'4 8.0
2017-Nov-10 14:01N 30°51' W 014°33'4 8.1
2017-Nov-10 13:31N 30°54' W 014°30'4 8.2
2017-Nov-10 13:01N 30°58' W 014°28'4 8.3
2017-Nov-10 12:31N 31°01' W 014°25'4 8.1
2017-Nov-10 12:01N 31°05' W 014°23'4 8.2
2017-Nov-10 11:31N 31°08' W 014°21'4 8.2
2017-Nov-10 11:01N 31°12' W 014°18'4 8.1
2017-Nov-10 10:31N 31°15' W 014°16'134 7.7
2017-Nov-09 17:04N 32°19' W 011°57'0 7.5
2017-Nov-09 17:00N 32°19' W 011°56'4 7.8
2017-Nov-09 16:31N 32°21' W 011°53'4 7.6
2017-Nov-09 16:01N 32°24' W 011°49'8 8.0
2017-Nov-09 14:58N 32°29' W 011°41'  

Dump ship's entire track history